This is the latest recevied weather packets stored in our database for station/object KU4DD. If no packets are shown the sender has not sent any weather packets the latest 10 day(s).
| Time | Temp. | Humidity | Pressure | Rain* | Wind** | Luminosity | Snow |
|---|---|---|---|---|---|---|---|
| 1787606162 | 31.67° C | 49% | 1013.2 hPa | 0 mm | - | 141 W/m² | - |
| 1787604764 | 32.22° C | 49% | 1012.9 hPa | 0 mm | - | 585 W/m² | - |
| 1787603202 | 32.22° C | 47% | 1012.9 hPa | 0 mm | - | 661 W/m² | - |
| 1787601074 | 31.67° C | 50% | 1012.9 hPa | 0 mm | - | 780 W/m² | - |
| 1787599549 | 31.67° C | 52% | 1012.9 hPa | 0 mm | - | 817 W/m² | - |
| 1787598927 | 31.67° C | 51% | 1012.9 hPa | 0 mm | - | 837 W/m² | - |
| 1787594681 | 31.67° C | 58% | 1013.9 hPa | 0 mm | - | 921 W/m² | - |
| 1787592247 | 30.56° C | 52% | 1014.6 hPa | 0 mm | - | 722 W/m² | - |
| 1787591330 | 30.56° C | 57% | 1014.6 hPa | 0 mm | - | 933 W/m² | - |
| 1787591017 | 30.56° C | 56% | 1014.6 hPa | 0 mm | - | 937 W/m² | - |
| 1787590402 | 30° C | 58% | 1014.6 hPa | 0 mm | - | 896 W/m² | - |
| 1787576159 | 24.44° C | 79% | 1015.2 hPa | 0 mm | - | 367 W/m² | - |
| 1787574035 | 22.22° C | 88% | 1015.2 hPa | 0 mm | - | 250 W/m² | - |
| 1787572504 | 20.56° C | 91% | 1015.2 hPa | 0 mm | - | 35 W/m² | - |
| 1787569768 | 20.56° C | 91% | 1015.6 hPa | 0 mm | - | 19 W/m² | - |
| 1787569155 | 20.56° C | 91% | 1015.9 hPa | 0 mm | - | 25 W/m² | - |
| 1787568844 | 20.56° C | 91% | 1015.6 hPa | 0 mm | - | 14 W/m² | - |
| 1787568230 | 20.56° C | 91% | 1014.9 hPa | 0 mm | - | 9 W/m² | - |
| 1787565185 | 20.56° C | 93% | 1015.2 hPa | 0 mm | - | 0 W/m² | - |
| 1787564570 | 20.56° C | 92% | 1014.6 hPa | 0 mm | - | 0 W/m² | - |
| 1787563348 | 20.56° C | 93% | 1013.9 hPa | 0 mm | - | 0 W/m² | - |
| 1787562735 | 20.56° C | 93% | 1014.2 hPa | 0 mm | - | 0 W/m² | - |
| 1787562422 | 20.56° C | 93% | 1014.6 hPa | 0 mm | - | 0 W/m² | - |
| 1787561175 | 20.56° C | 93% | 1014.2 hPa | 0 mm | - | 0 W/m² | - |
| 1787560561 | 20.56° C | 93% | 1014.2 hPa | 0 mm | - | 0 W/m² | - |
* Rain latest hour (hover to see other rain measurements)
** Current wind speed in m/s (hover to see current wind gust speed)